Fort Worth, TX

12:41 AM CDT on April 29, 2017 (GMT -0500)
Near Southside | | Change Station

Elev 673 ft 32.74 °N, 97.33 °W | Updated 60 seconds ago

Partly Cloudy
Partly Cloudy
78.8 °F
Feels Like 82 °F
N
3.0
Wind Variable Wind from SSE
Gusts 3.0 mph

Today
High -- | Low -- °F
--% Chance of Precip.
Yesterday
High -- | Low -- °F
Precip. -- in
Pressure 29.56 in
Visibility 9.0 miles
Clouds Clear
Heat Index 82 °F
Dew Point 72 °F
Humidity 79%
Rainfall 0.00 in
Snow Depth Not available.
6:43 AM 8:09 PM
Waxing Crescent, 11% visible
METAR KFTW 290453Z 14017G23KT 9SM CLR 27/22 A2959 RMK AO2 PK WND 15026/0432 SLP010 T02720217
Pressure 29.56 in
Visibility 9.0 miles
Clouds Clear
Heat Index 82 °F
Dew Point 72 °F
Humidity 79%
Rainfall 0.00 in
Snow Depth Not available.
6:43 AM 8:09 PM
Waxing Crescent, 11% visible
METAR KFTW 290453Z 14017G23KT 9SM CLR 27/22 A2959 RMK AO2 PK WND 15026/0432 SLP010 T02720217

Get Severe Weather Alerts

Thanks for signing up!

Be on the lookout for a verification email in your inbox.

You'll start receiving the daily forecast at 8 AM.

×

10-Day Weather Forecast

Almanac

Astronomy

Apr. 29, 2017 Rise Set
Actual Time
Civil Twilight
Nautical Twilight
Astronomical Twilight
Moon
Length of Visible Light
Length of Day
Tomorrow will be .
, % of the Moon is Illuminated

Today's Extremes

State Highs State Lows

Community

WunderPhotos

WunderBlog® & News

Nearby

Air Quality

  Air Quality AQ Index Pollutant
Not available.

Snow Depth

Station Depth Elevation

Earthquake Activity

City Distance Mag. Time & Date
Minimum magnitude displayed is 2.5.

Coastal Water Temperatures

Place Temperature

Stations

Nearby Weather Stations

Station Location Temp. Windchill Dew Point Humidity Wind Precip. Elev Updated Type
                   

Watches & Warnings

There are currently no watches in effect.